Time;durP1;ratioP1;P1;durP2;ratioP2;P2;SDS_P1;SDS_P2;PMS_P1;PMS_P2;Temp;Humidity;BMP_temperature;BMP_pressure;BME280_temperature;BME280_humidity;BME280_pressure;Samples;Min_cycle;Max_cycle;Signal;HPM_P1;HPM_P2
2023/05/07 00:00:15;;;;;;;5.83;3.63;;;;;;;14.66;100.00;96156.16;5053992;28;20033;-90
2023/05/07 00:02:46;;;;;;;6.17;4.07;;;;;;;14.57;100.00;96154.63;5067390;28;20024;-90
2023/05/07 00:05:12;;;;;;;6.87;4.03;;;;;;;14.73;100.00;96149.09;5075397;28;20032;-90
2023/05/07 00:07:37;;;;;;;6.33;3.57;;;;;;;14.77;100.00;96147.72;5056043;28;20032;-90
2023/05/07 00:10:07;;;;;;;6.80;3.83;;;;;;;14.83;100.00;96152.25;5081444;28;20107;-90
2023/05/07 00:12:33;;;;;;;7.27;3.57;;;;;;;14.76;100.00;96151.38;5076612;28;20508;-89
2023/05/07 00:15:07;;;;;;;6.97;3.77;;;;;;;14.63;100.00;96147.78;5067189;28;20036;-89
2023/05/07 00:17:33;;;;;;;8.10;4.20;;;;;;;14.65;100.00;96158.97;5050737;28;20024;-90
2023/05/07 00:20:02;;;;;;;7.73;4.27;;;;;;;14.42;100.00;96165.22;5056845;28;20127;-90
2023/05/07 00:22:29;;;;;;;7.20;3.90;;;;;;;14.51;100.00;96161.47;5075160;28;20032;-90
2023/05/07 00:24:55;;;;;;;6.77;3.90;;;;;;;14.35;100.00;96165.13;5065219;28;20082;-90
2023/05/07 00:27:21;;;;;;;8.03;4.00;;;;;;;14.50;100.00;96156.34;5056369;28;20587;-89
2023/05/07 00:29:47;;;;;;;6.97;3.97;;;;;;;14.64;100.00;96157.34;5056678;28;20031;-89
2023/05/07 00:32:13;;;;;;;7.13;3.70;;;;;;;14.69;100.00;96147.00;5071798;28;20061;-89
2023/05/07 00:34:42;;;;;;;7.10;3.63;;;;;;;14.41;100.00;96160.09;5068982;28;20028;-89
2023/05/07 00:37:08;;;;;;;6.73;4.03;;;;;;;14.55;100.00;96153.97;5072039;28;20028;-89
2023/05/07 00:39:59;;;;;;;5.93;3.70;;;;;;;14.39;100.00;96155.81;5057315;28;20024;-89
2023/05/07 00:42:24;;;;;;;5.70;3.40;;;;;;;14.24;100.00;96149.69;5057387;28;20043;-89
2023/05/07 00:44:51;;;;;;;6.17;3.60;;;;;;;14.39;100.00;96150.50;5056976;28;20031;-90
2023/05/07 00:47:17;;;;;;;7.13;3.77;;;;;;;14.32;100.00;96154.91;5056863;28;20088;-89
2023/05/07 00:49:44;;;;;;;6.27;3.53;;;;;;;14.27;100.00;96151.16;5062264;28;20028;-90
2023/05/07 00:52:15;;;;;;;6.47;3.23;;;;;;;14.41;100.00;96152.97;5066905;28;20024;-89
2023/05/07 00:54:41;;;;;;;8.33;3.90;;;;;;;13.94;100.00;96151.53;5063280;28;20047;-90
2023/05/07 00:57:08;;;;;;;5.27;3.30;;;;;;;13.89;100.00;96140.69;5068394;28;20034;-90
2023/05/07 00:59:36;;;;;;;5.77;3.13;;;;;;;13.59;100.00;96147.78;5079157;28;20067;-90
2023/05/07 01:02:27;;;;;;;4.57;2.80;;;;;;;13.81;100.00;96144.22;5064384;28;20024;-90
2023/05/07 01:04:53;;;;;;;5.47;3.27;;;;;;;13.84;100.00;96137.78;5073089;28;20036;-89
2023/05/07 01:07:18;;;;;;;6.87;3.33;;;;;;;13.74;100.00;96140.69;5077549;28;20073;-90
2023/05/07 01:09:44;;;;;;;5.13;2.87;;;;;;;13.77;100.00;96134.22;5064523;28;20036;-89
2023/05/07 01:12:10;;;;;;;5.77;3.13;;;;;;;13.49;100.00;96136.66;5061654;28;20109;-87
2023/05/07 01:14:36;;;;;;;4.80;3.27;;;;;;;13.55;100.00;96135.94;5051319;28;20036;-90
2023/05/07 01:17:02;;;;;;;6.43;3.43;;;;;;;13.57;100.00;96131.28;5069063;28;20031;-89
2023/05/07 01:19:30;;;;;;;5.40;3.63;;;;;;;13.76;100.00;96128.13;5056960;28;20044;-90
2023/05/07 01:22:02;;;;;;;6.20;3.70;;;;;;;13.69;100.00;96129.84;5062666;28;20035;-90
2023/05/07 01:24:31;;;;;;;6.03;3.80;;;;;;;13.66;100.00;96127.56;5051543;28;20033;-89
2023/05/07 01:26:56;;;;;;;5.73;4.00;;;;;;;13.51;100.00;96134.63;5056744;28;20027;-89
2023/05/07 01:29:23;;;;;;;5.23;3.50;;;;;;;13.54;100.00;96136.91;5043528;28;20067;-89
2023/05/07 01:31:51;;;;;;;7.27;3.50;;;;;;;13.67;100.00;96131.84;5061533;28;20050;-89
2023/05/07 01:34:19;;;;;;;7.77;4.50;;;;;;;13.62;100.00;96136.84;5058859;28;20105;-89
2023/05/07 01:36:46;;;;;;;7.33;3.77;;;;;;;13.81;100.00;96125.72;5039374;28;20025;-90
2023/05/07 01:39:15;;;;;;;8.43;3.73;;;;;;;13.77;100.00;96129.75;5042754;28;20028;-90
2023/05/07 01:41:43;;;;;;;10.43;4.80;;;;;;;13.78;100.00;96131.41;5044518;28;20031;-90
2023/05/07 01:44:12;;;;;;;6.40;3.40;;;;;;;13.74;100.00;96130.09;5057198;28;20035;-90
2023/05/07 01:46:37;;;;;;;8.77;5.13;;;;;;;13.69;100.00;96132.50;5044484;28;20494;-90
2023/05/07 01:49:12;;;;;;;8.40;3.93;;;;;;;13.59;100.00;96126.66;5056848;28;20033;-89
2023/05/07 01:52:02;;;;;;;8.50;3.93;;;;;;;13.57;100.00;96129.44;5041664;28;20037;-89
2023/05/07 01:54:32;;;;;;;6.90;4.00;;;;;;;13.37;100.00;96133.59;5038964;28;20044;-88
2023/05/07 01:56:59;;;;;;;8.03;4.00;;;;;;;13.51;100.00;96137.28;5041443;28;20031;-89
2023/05/07 01:59:25;;;;;;;9.20;4.43;;;;;;;13.51;100.00;96124.88;5065928;28;20128;-90
2023/05/07 02:01:51;;;;;;;5.47;3.70;;;;;;;13.32;100.00;96126.22;5037211;28;20115;-90
2023/05/07 02:04:17;;;;;;;6.50;4.23;;;;;;;13.35;100.00;96130.34;5038412;28;20038;-90
2023/05/07 02:06:43;;;;;;;7.87;4.17;;;;;;;13.19;100.00;96123.34;5056853;28;20032;-90
2023/05/07 02:09:23;;;;;;;14.90;4.83;;;;;;;12.96;100.00;96126.81;5040425;28;20122;-89
2023/05/07 02:11:50;;;;;;;7.77;4.17;;;;;;;12.99;100.00;96133.56;5041003;28;20028;-89
2023/05/07 02:14:19;;;;;;;6.50;4.00;;;;;;;12.96;100.00;96131.28;5047543;28;20165;-90
2023/05/07 02:16:45;;;;;;;7.60;4.50;;;;;;;13.07;100.00;96122.94;5055999;28;20036;-89
2023/05/07 02:19:13;;;;;;;7.07;4.10;;;;;;;12.90;100.00;96124.88;5060843;28;20013;-90
2023/05/07 02:21:38;;;;;;;7.60;3.90;;;;;;;13.08;100.00;96126.41;5058904;28;20056;-89
2023/05/07 02:24:04;;;;;;;5.63;3.73;;;;;;;13.24;100.00;96123.66;5061163;28;20147;-89
2023/05/07 02:26:30;;;;;;;6.57;4.47;;;;;;;13.12;100.00;96119.78;5061790;28;20028;-90
2023/05/07 02:28:55;;;;;;;5.47;3.63;;;;;;;12.91;100.00;96121.25;5057388;28;20037;-90
2023/05/07 02:31:24;;;;;;;9.63;4.60;;;;;;;13.06;100.00;96118.66;5038947;28;20028;-90
2023/05/07 02:33:50;;;;;;;8.10;4.47;;;;;;;13.13;100.00;96124.88;5039395;28;20060;-89
2023/05/07 02:36:16;;;;;;;7.60;3.90;;;;;;;13.17;100.00;96134.06;5040306;28;20039;-89
2023/05/07 02:39:00;;;;;;;7.60;4.03;;;;;;;13.07;100.00;96127.41;5055339;28;20028;-89
2023/05/07 02:41:27;;;;;;;8.00;4.27;;;;;;;13.11;100.00;96134.81;5056594;28;20036;-90
2023/05/07 02:44:19;;;;;;;7.03;3.90;;;;;;;13.29;100.00;96128.41;5035385;28;20025;-90
2023/05/07 02:46:48;;;;;;;6.80;4.30;;;;;;;13.16;100.00;96116.59;5039941;28;20032;-90
2023/05/07 02:49:14;;;;;;;6.90;4.10;;;;;;;13.04;100.00;96127.75;5056267;28;20463;-88
2023/05/07 02:51:39;;;;;;;5.63;3.57;;;;;;;12.89;100.00;96131.16;5040568;28;20033;-89
2023/05/07 02:54:14;;;;;;;5.97;4.17;;;;;;;12.98;100.00;96132.75;5035887;28;20021;-89
2023/05/07 02:56:39;;;;;;;6.80;3.93;;;;;;;13.04;100.00;96131.19;5037303;28;20086;-90
2023/05/07 02:59:07;;;;;;;5.97;3.67;;;;;;;13.03;100.00;96132.22;5025831;28;20028;-89
2023/05/07 03:01:37;;;;;;;6.87;3.90;;;;;;;13.15;100.00;96130.00;5066741;28;20020;-89
2023/05/07 03:04:07;;;;;;;7.10;3.27;;;;;;;12.89;100.00;96139.06;5035317;28;20028;-89
2023/05/07 03:06:32;;;;;;;7.50;3.97;;;;;;;12.82;100.00;96135.50;5081864;28;20850;-89
2023/05/07 03:08:58;;;;;;;5.37;3.53;;;;;;;12.87;100.00;96132.31;5049809;28;20073;-90
2023/05/07 03:11:26;;;;;;;7.83;3.50;;;;;;;12.59;100.00;96140.75;5051303;28;20040;-88
2023/05/07 03:13:51;;;;;;;5.83;3.37;;;;;;;12.57;100.00;96131.38;5036291;28;20123;-90
2023/05/07 03:16:19;;;;;;;6.53;3.13;;;;;;;12.58;100.00;96135.66;5031241;28;20122;-90
2023/05/07 03:18:45;;;;;;;5.73;3.50;;;;;;;12.50;100.00;96134.69;5037463;28;20078;-89
2023/05/07 03:21:10;;;;;;;6.57;3.60;;;;;;;12.54;100.00;96124.66;5054653;28;20027;-90
2023/05/07 03:23:36;;;;;;;6.77;3.67;;;;;;;12.61;100.00;96122.09;5038556;28;20036;-90
2023/05/07 03:26:03;;;;;;;5.93;3.50;;;;;;;12.93;100.00;96119.25;5056268;28;20036;-90
2023/05/07 03:28:28;;;;;;;6.27;3.17;;;;;;;12.79;100.00;96117.38;5037283;28;20028;-90
2023/05/07 03:30:59;;;;;;;5.20;3.03;;;;;;;12.90;100.00;96110.88;5060918;23;20052;-89
2023/05/07 03:33:25;;;;;;;9.47;3.93;;;;;;;13.19;100.00;96120.69;5050778;28;20071;-89
2023/05/07 03:35:50;;;;;;;6.77;3.70;;;;;;;13.08;100.00;96124.59;5054862;28;20594;-89
2023/05/07 03:38:20;;;;;;;5.07;3.30;;;;;;;13.02;100.00;96120.03;5043758;28;20032;-90
2023/05/07 03:40:46;;;;;;;6.13;3.47;;;;;;;13.17;100.00;96118.22;5033281;28;20032;-89
2023/05/07 03:43:12;;;;;;;5.53;3.53;;;;;;;13.23;100.00;96115.88;5035350;28;20094;-90
2023/05/07 03:45:42;;;;;;;7.20;4.07;;;;;;;13.17;100.00;96123.50;5037372;28;20096;-88
2023/05/07 03:48:34;;;;;;;6.93;3.63;;;;;;;13.11;100.00;96120.75;5040436;28;20091;-89
2023/05/07 03:51:00;;;;;;;6.97;4.10;;;;;;;13.19;100.00;96125.97;5040620;28;20040;-88
2023/05/07 03:53:30;;;;;;;6.17;3.97;;;;;;;13.08;100.00;96121.97;5034102;28;20398;-89
2023/05/07 03:56:04;;;;;;;6.93;3.70;;;;;;;13.12;100.00;96125.06;5020378;28;20120;-89
2023/05/07 03:58:35;;;;;;;7.53;4.03;;;;;;;13.07;100.00;96125.56;5046622;28;20031;-89
2023/05/07 04:01:07;;;;;;;6.23;4.10;;;;;;;13.03;100.00;96126.94;5034190;28;20032;-88
2023/05/07 04:03:33;;;;;;;7.70;3.77;;;;;;;12.96;100.00;96126.81;5035974;28;20029;-89
2023/05/07 04:05:59;;;;;;;7.47;4.10;;;;;;;13.14;100.00;96126.50;5051921;28;20274;-89
2023/05/07 04:08:28;;;;;;;7.07;4.13;;;;;;;12.90;100.00;96127.50;5029717;28;20032;-89
2023/05/07 04:10:58;;;;;;;6.80;3.93;;;;;;;12.91;100.00;96129.19;5033772;28;20044;-89
2023/05/07 04:13:27;;;;;;;7.93;3.83;;;;;;;12.87;100.00;96130.50;5049971;28;20028;-90
2023/05/07 04:15:55;;;;;;;6.73;4.03;;;;;;;12.87;100.00;96133.16;5037015;28;20090;-89
2023/05/07 04:18:21;;;;;;;6.73;4.03;;;;;;;12.80;100.00;96137.47;5037516;28;20115;-89
2023/05/07 04:20:59;;;;;;;7.20;4.47;;;;;;;12.79;100.00;96129.75;5029652;28;21332;-89
2023/05/07 04:23:25;;;;;;;8.40;5.30;;;;;;;12.78;100.00;96133.41;5034657;28;20049;-89
2023/05/07 04:25:52;;;;;;;9.97;4.53;;;;;;;12.75;100.00;96134.56;5040004;28;20032;-90
2023/05/07 04:28:24;;;;;;;8.15;4.30;;;;;;;12.84;100.00;96135.31;5037331;28;20021;-90
2023/05/07 04:30:50;;;;;;;8.30;4.00;;;;;;;12.88;100.00;96132.16;5034520;28;20940;-89
2023/05/07 04:33:19;;;;;;;7.07;4.90;;;;;;;12.91;100.00;96139.75;5031292;28;20101;-89
2023/05/07 04:35:46;;;;;;;7.00;4.57;;;;;;;12.96;100.00;96134.72;5033804;28;20025;-89
2023/05/07 04:38:18;;;;;;;7.70;4.20;;;;;;;12.96;100.00;96142.66;5035228;28;20021;-89
2023/05/07 04:40:45;;;;;;;6.57;4.37;;;;;;;13.37;100.00;96138.91;5044964;28;20447;-89
2023/05/07 04:43:15;;;;;;;7.00;4.83;;;;;;;13.22;100.00;96144.13;5032314;28;20028;-89
2023/05/07 04:45:46;;;;;;;9.23;4.63;;;;;;;13.30;100.00;96144.06;5047873;28;20054;-89
2023/05/07 04:48:14;;;;;;;7.57;4.70;;;;;;;13.33;100.00;96143.72;5044462;28;20029;-89
2023/05/07 04:50:42;;;;;;;10.23;5.07;;;;;;;13.42;100.00;96147.94;5025739;28;20029;-89
2023/05/07 04:53:08;;;;;;;6.77;4.20;;;;;;;13.47;100.00;96142.09;5040256;28;20025;-89
2023/05/07 04:55:34;;;;;;;7.27;4.57;;;;;;;13.22;100.00;96146.75;5043698;28;20028;-88
2023/05/07 04:58:01;;;;;;;11.80;7.40;;;;;;;13.44;100.00;96143.28;5036138;28;20044;-89
2023/05/07 05:00:31;;;;;;;9.90;5.83;;;;;;;13.62;100.00;96147.44;5053247;28;20036;-89
2023/05/07 05:02:57;;;;;;;8.00;5.10;;;;;;;13.94;100.00;96151.53;5054351;28;20048;-89
2023/05/07 05:05:23;;;;;;;7.43;4.13;;;;;;;14.05;100.00;96150.25;5035533;28;20029;-88
2023/05/07 05:07:52;;;;;;;6.20;4.20;;;;;;;14.28;100.00;96150.97;5039646;28;20095;-89
2023/05/07 05:10:18;;;;;;;6.93;5.00;;;;;;;14.36;100.00;96150.06;5036382;28;20044;-89
2023/05/07 05:12:44;;;;;;;7.77;4.67;;;;;;;14.55;100.00;96148.69;5039598;28;20498;-88
2023/05/07 05:15:20;;;;;;;7.87;4.07;;;;;;;14.73;100.00;96146.44;5036015;28;20032;-89
2023/05/07 05:17:45;;;;;;;7.43;4.77;;;;;;;14.85;100.00;96152.06;5031191;28;20108;-90
2023/05/07 05:20:12;;;;;;;5.93;4.20;;;;;;;15.35;100.00;96154.78;5047741;28;20036;-90
2023/05/07 05:22:39;;;;;;;6.93;4.47;;;;;;;15.46;100.00;96154.25;5046756;28;20017;-89
2023/05/07 05:25:05;;;;;;;7.20;4.40;;;;;;;15.66;100.00;96151.75;5065513;28;20025;-90
2023/05/07 05:27:31;;;;;;;6.07;3.97;;;;;;;15.67;100.00;96148.97;5038370;28;20919;-90
2023/05/07 05:29:57;;;;;;;6.67;3.53;;;;;;;15.60;100.00;96149.91;5042904;28;20029;-89
2023/05/07 05:32:36;;;;;;;7.87;3.90;;;;;;;15.88;100.00;96160.53;5049900;28;20040;-89
2023/05/07 05:35:02;;;;;;;5.83;3.60;;;;;;;16.00;100.00;96161.63;5042651;28;20036;-90
2023/05/07 05:37:30;;;;;;;6.00;3.67;;;;;;;16.19;100.00;96158.25;5041816;28;20449;-90
2023/05/07 05:39:57;;;;;;;6.17;4.10;;;;;;;15.95;100.00;96158.72;5041761;28;20520;-90
2023/05/07 05:42:25;;;;;;;7.57;3.90;;;;;;;16.23;100.00;96156.88;5051728;28;20036;-89
2023/05/07 05:44:51;;;;;;;6.00;4.03;;;;;;;16.08;100.00;96156.16;5050148;28;20095;-90
2023/05/07 05:47:17;;;;;;;6.70;3.80;;;;;;;16.22;100.00;96152.56;5044006;28;20040;-89
2023/05/07 05:49:43;;;;;;;6.43;3.77;;;;;;;16.18;100.00;96155.81;5029321;28;20068;-90
2023/05/07 05:52:14;;;;;;;5.90;3.97;;;;;;;16.07;100.00;96159.84;5031918;28;20577;-90
2023/05/07 05:54:46;;;;;;;7.10;3.60;;;;;;;16.25;100.00;96159.31;5052254;28;20132;-89
2023/05/07 05:57:12;;;;;;;5.57;3.58;;;;;;;16.16;100.00;96157.81;5037746;28;20024;-89
2023/05/07 05:59:38;;;;;;;5.63;3.70;;;;;;;16.15;100.00;96161.50;5046657;28;20036;-89
2023/05/07 06:02:08;;;;;;;5.23;3.83;;;;;;;15.93;100.00;96166.06;5039996;28;20029;-89
2023/05/07 06:04:34;;;;;;;7.07;4.27;;;;;;;15.86;100.00;96151.94;5050021;28;20039;-90
2023/05/07 06:07:00;;;;;;;6.23;4.10;;;;;;;15.86;100.00;96157.22;5025201;28;20115;-90
2023/05/07 06:09:40;;;;;;;9.50;5.23;;;;;;;16.34;100.00;96152.81;5046609;28;20023;-90
2023/05/07 06:12:08;;;;;;;6.67;3.67;;;;;;;16.86;100.00;96163.84;5047164;28;20158;-90
2023/05/07 06:14:35;;;;;;;5.80;3.43;;;;;;;17.44;100.00;96150.88;5033660;28;20028;-89
2023/05/07 06:17:01;;;;;;;7.60;3.43;;;;;;;17.91;100.00;96151.72;5051852;28;20292;-90
2023/05/07 06:19:28;;;;;;;6.53;4.30;;;;;;;17.77;100.00;96142.94;5047495;28;20907;-90
2023/05/07 06:21:56;;;;;;;6.83;3.13;;;;;;;18.82;100.00;96140.97;5046085;28;20031;-90
2023/05/07 06:24:36;;;;;;;8.30;3.53;;;;;;;19.05;100.00;96147.63;5043539;28;20070;-90
2023/05/07 06:27:15;;;;;;;6.38;3.60;;;;;;;19.31;100.00;96158.13;5049399;28;20033;-90
2023/05/07 06:29:53;;;;;;;6.35;4.10;;;;;;;19.37;100.00;96156.41;5048824;28;20055;-90
2023/05/07 06:32:19;;;;;;;7.10;3.65;;;;;;;19.31;100.00;96141.28;5055668;28;20043;-90
2023/05/07 06:34:51;;;;;;;5.70;3.45;;;;;;;20.41;100.00;96141.50;5062525;28;20020;-88
2023/05/07 06:37:18;;;;;;;5.60;3.50;;;;;;;20.10;100.00;96155.00;5049024;28;20071;-89
2023/05/07 06:43:06;;;;;;;6.20;3.45;;;;;;;18.94;100.00;96162.41;5053329;28;20075;-87
2023/05/07 06:45:55;;;;;;;5.05;3.00;;;;;;;19.30;100.00;96168.97;5051371;28;20020;-88
2023/05/07 06:48:21;;;;;;;6.38;3.60;;;;;;;18.95;100.00;96160.59;5053658;28;20037;-89
2023/05/07 06:50:57;;;;;;;5.50;3.55;;;;;;;18.89;100.00;96164.09;5044101;28;20063;-89
2023/05/07 06:53:30;;;;;;;6.25;4.03;;;;;;;19.27;100.00;96167.56;5042827;28;20029;-89
2023/05/07 06:56:00;;;;;;;5.82;3.80;;;;;;;19.61;100.00;96162.78;5040747;28;20035;-89
2023/05/07 06:58:26;;;;;;;5.88;3.75;;;;;;;19.22;100.00;96171.91;5046836;28;20161;-89
2023/05/07 07:00:52;;;;;;;5.70;3.72;;;;;;;19.47;100.00;96172.75;5035375;28;20045;-89
2023/05/07 07:03:20;;;;;;;4.68;2.95;;;;;;;20.23;100.00;96160.22;5065516;28;20405;-89
2023/05/07 07:05:51;;;;;;;5.90;3.38;;;;;;;20.51;100.00;96165.06;5044026;28;20024;-89
2023/05/07 07:08:17;;;;;;;5.68;3.17;;;;;;;20.77;100.00;96161.25;5075158;28;20059;-89
2023/05/07 07:10:51;;;;;;;4.28;2.88;;;;;;;21.11;100.00;96162.44;5040719;28;20044;-89
2023/05/07 07:13:17;;;;;;;6.32;3.25;;;;;;;21.92;100.00;96162.84;5048641;28;20748;-89
2023/05/07 07:15:53;;;;;;;5.50;2.75;;;;;;;22.69;100.00;96165.34;5034854;28;20061;-90
2023/05/07 07:18:24;;;;;;;5.25;2.45;;;;;;;23.13;100.00;96152.28;5047508;28;20039;-89
2023/05/07 07:21:10;;;;;;;3.50;2.40;;;;;;;23.95;100.00;96142.94;5054548;28;20078;-90
2023/05/07 07:23:36;;;;;;;5.30;2.55;;;;;;;24.59;100.00;96148.69;5050213;28;20028;-90
2023/05/07 07:26:02;;;;;;;4.65;2.83;;;;;;;24.50;100.00;96144.81;5058252;28;20119;-91
2023/05/07 07:28:29;;;;;;;3.53;2.17;;;;;;;25.57;100.00;96147.84;5037563;28;20036;-91
2023/05/07 07:30:54;;;;;;;3.90;2.35;;;;;;;25.34;97.20;96140.91;5052492;28;20799;-90
2023/05/07 07:33:20;;;;;;;4.72;2.47;;;;;;;25.49;98.66;96140.25;5041731;28;20036;-91
2023/05/07 07:35:46;;;;;;;4.40;2.88;;;;;;;25.97;94.86;96144.69;5037206;28;20040;-90
2023/05/07 07:38:12;;;;;;;5.05;2.50;;;;;;;25.93;95.59;96140.91;5044872;28;20036;-91
2023/05/07 07:40:39;;;;;;;4.95;2.40;;;;;;;26.76;91.97;96149.19;5037437;28;20121;-90
2023/05/07 07:43:06;;;;;;;4.13;2.42;;;;;;;26.83;90.96;96148.13;5039240;28;20040;-91
2023/05/07 07:45:32;;;;;;;3.28;1.90;;;;;;;26.67;90.47;96144.56;5055584;28;20556;-91
2023/05/07 07:47:59;;;;;;;3.20;2.08;;;;;;;26.40;87.66;96148.19;5039552;28;20056;-91
2023/05/07 07:50:25;;;;;;;3.88;1.80;;;;;;;26.03;91.11;96151.75;5039905;28;20032;-90
2023/05/07 07:52:51;;;;;;;5.03;2.17;;;;;;;25.99;89.92;96147.13;5046932;28;20037;-93
2023/05/07 07:55:23;;;;;;;4.38;2.13;;;;;;;25.66;88.67;96145.50;5043385;28;20059;-86
2023/05/07 07:57:51;;;;;;;2.90;1.88;;;;;;;27.21;80.35;96152.31;5049229;28;20401;-85
2023/05/07 08:00:36;;;;;;;3.47;1.73;;;;;;;26.69;82.16;96158.59;5047389;28;20040;-94
2023/05/07 08:03:04;;;;;;;3.30;1.45;;;;;;;26.63;82.25;96156.97;5038557;28;20036;-90
2023/05/07 08:05:38;;;;;;;3.10;1.73;;;;;;;26.23;82.79;96156.47;5042163;28;20036;-91
2023/05/07 08:08:26;;;;;;;3.90;1.60;;;;;;;25.22;85.98;96154.53;5038175;28;20087;-90
2023/05/07 08:10:55;;;;;;;2.80;1.60;;;;;;;25.71;84.41;96159.00;5031973;28;20029;-93
2023/05/07 08:13:32;;;;;;;2.83;1.33;;;;;;;26.52;79.57;96156.09;5024497;28;20025;-92
2023/05/07 08:16:10;;;;;;;3.40;1.60;;;;;;;25.83;84.32;96162.38;5047459;28;20033;-88
2023/05/07 08:18:37;;;;;;;2.83;1.60;;;;;;;25.94;80.63;96168.66;5065780;28;20397;-90
2023/05/07 08:21:03;;;;;;;3.20;1.40;;;;;;;25.97;79.47;96166.25;5045090;28;20115;-93
2023/05/07 08:23:30;;;;;;;4.38;1.80;;;;;;;26.22;78.38;96175.56;5049017;28;20025;-92
2023/05/07 08:25:57;;;;;;;2.70;1.55;;;;;;;25.39;77.60;96165.19;5056343;28;20029;-92
2023/05/07 08:28:26;;;;;;;2.17;1.10;;;;;;;26.91;69.03;96161.13;5057142;28;20045;-92
2023/05/07 08:30:52;;;;;;;1.80;1.17;;;;;;;27.00;71.08;96163.03;5071942;28;20043;-92
2023/05/07 08:33:19;;;;;;;2.58;1.40;;;;;;;27.31;69.89;96144.25;5035208;28;20086;-92
2023/05/07 08:35:44;;;;;;;2.67;1.00;;;;;;;26.44;70.92;96157.38;5068621;28;20016;-93
2023/05/07 08:38:17;;;;;;;4.70;1.60;;;;;;;26.24;73.62;96170.75;5046001;28;20474;-93
2023/05/07 08:40:43;;;;;;;3.20;1.60;;;;;;;25.23;78.20;96158.84;5036669;28;20413;-92
2023/05/07 08:43:16;;;;;;;2.75;1.30;;;;;;;25.38;80.03;96152.78;5041635;28;20035;-91
2023/05/07 08:46:01;;;;;;;1.63;1.05;;;;;;;24.68;80.54;96165.19;5055473;28;20028;-90
2023/05/07 08:48:37;;;;;;;2.47;1.10;;;;;;;25.18;80.79;96166.84;5026918;28;20031;-91
2023/05/07 08:51:12;;;;;;;3.78;1.40;;;;;;;26.58;73.47;96167.72;5041500;28;20044;-91
2023/05/07 08:53:41;;;;;;;2.05;1.17;;;;;;;26.55;71.72;96167.16;5040013;28;20105;-92
2023/05/07 08:56:20;;;;;;;3.10;1.48;;;;;;;26.43;69.06;96169.25;5038126;28;20036;-95
2023/05/07 08:59:03;;;;;;;3.33;1.27;;;;;;;26.80;66.09;96157.56;5024344;28;20040;-94
2023/05/07 09:01:41;;;;;;;1.75;1.00;;;;;;;27.42;63.15;96162.06;5059710;28;20038;-95
2023/05/07 09:04:08;;;;;;;1.70;1.23;;;;;;;26.55;65.97;96163.66;5058093;28;20043;-95
2023/05/07 09:06:34;;;;;;;2.22;1.10;;;;;;;26.94;68.40;96149.78;5044191;28;20119;-92
2023/05/07 09:09:31;;;;;;;2.08;1.08;;;;;;;26.88;70.48;96148.16;5043221;28;20577;-92
2023/05/07 09:12:10;;;;;;;2.90;1.17;;;;;;;25.48;74.23;96155.56;5055234;28;20090;-91
2023/05/07 09:14:57;;;;;;;3.53;1.35;;;;;;;25.62;70.33;96153.28;5047458;28;20035;-91
2023/05/07 09:17:27;;;;;;;3.80;1.25;;;;;;;24.85;73.22;96157.06;5054487;28;20037;-90
2023/05/07 09:19:53;;;;;;;2.28;1.10;;;;;;;25.17;73.51;96157.97;5054507;28;20040;-91
2023/05/07 09:22:20;;;;;;;6.82;1.60;;;;;;;25.62;73.37;96148.72;5068037;28;20061;-90
2023/05/07 09:25:00;;;;;;;1.30;1.00;;;;;;;24.83;71.28;96159.19;5051167;28;20041;-90
2023/05/07 09:27:31;;;;;;;2.92;1.42;;;;;;;26.18;66.58;96150.22;5055015;28;20032;-91
2023/05/07 09:29:57;;;;;;;2.30;1.48;;;;;;;26.42;65.88;96159.50;5060941;28;20130;-90
2023/05/07 09:32:27;;;;;;;1.92;1.10;;;;;;;26.13;63.87;96156.41;5055600;28;20020;-91
2023/05/07 09:35:21;;;;;;;2.10;0.90;;;;;;;27.33;62.98;96150.19;5048147;28;20115;-91
2023/05/07 09:37:55;;;;;;;2.15;1.15;;;;;;;27.90;60.27;96154.56;5051447;28;20039;-91
2023/05/07 09:40:25;;;;;;;2.83;1.20;;;;;;;27.40;56.47;96155.34;5047539;28;20482;-91
2023/05/07 09:42:53;;;;;;;1.30;0.90;;;;;;;26.61;61.72;96159.09;5048151;28;20056;-91
2023/05/07 09:49:19;;;;;;;2.55;1.67;;;;;;;26.19;82.08;96168.00;5082756;28;20058;-90
2023/05/07 09:51:50;;;;;;;4.10;1.80;;;;;;;26.50;80.29;96161.75;5047903;28;20473;-91
2023/05/07 09:54:18;;;;;;;3.00;1.50;;;;;;;26.83;80.35;96159.75;5046990;28;20032;-91
2023/05/07 09:56:59;;;;;;;3.13;1.92;;;;;;;26.90;79.98;96160.31;5032081;28;20463;-91
2023/05/07 09:59:27;;;;;;;2.63;1.63;;;;;;;26.96;79.75;96151.16;5032882;28;20490;-91
2023/05/07 10:01:58;;;;;;;2.50;1.40;;;;;;;26.43;80.54;96158.47;5049914;28;20103;-91
2023/05/07 10:04:26;;;;;;;3.42;1.80;;;;;;;25.68;83.94;96156.81;5044814;28;20043;-91
2023/05/07 10:06:53;;;;;;;3.47;1.55;;;;;;;25.31;86.99;96154.88;5047939;28;20040;-91
2023/05/07 10:09:21;;;;;;;3.75;1.52;;;;;;;26.09;85.77;96156.09;5064769;28;20062;-93
2023/05/07 10:11:48;;;;;;;2.70;1.25;;;;;;;25.74;86.71;96148.53;5045127;28;20120;-92
2023/05/07 10:14:14;;;;;;;2.22;1.50;;;;;;;26.28;83.44;96152.97;5062429;28;20032;-92
2023/05/07 10:16:41;;;;;;;4.28;1.20;;;;;;;27.53;77.58;96146.69;5047172;28;20039;-93
2023/05/07 10:19:32;;;;;;;2.60;1.25;;;;;;;27.66;80.72;96148.03;5036988;28;20035;-93
2023/05/07 10:22:04;;;;;;;2.70;1.15;;;;;;;27.40;76.91;96152.63;5048181;28;20114;-93
2023/05/07 10:28:22;;;;;;;2.70;1.55;;;;;;;27.22;72.53;96156.63;5089648;28;20059;-93
2023/05/07 10:31:20;;;;;;;3.60;2.20;;;;;;;27.61;73.80;96148.06;5160526;22;20056;-93
2023/05/07 10:33:52;;;;;;;3.20;1.50;;;;;;;27.95;70.72;96140.25;5044037;28;20087;-94
2023/05/07 10:36:22;;;;;;;2.55;1.40;;;;;;;27.05;78.86;96146.03;5059348;28;20100;-92
2023/05/07 10:38:59;;;;;;;2.72;1.65;;;;;;;26.18;80.16;96142.94;5045004;28;20034;-92
2023/05/07 10:41:25;;;;;;;4.53;1.60;;;;;;;27.65;75.56;96130.22;5044679;28;20029;-92
2023/05/07 10:43:51;;;;;;;4.45;1.52;;;;;;;27.65;71.85;96132.91;5048336;28;20037;-92
2023/05/07 10:46:35;;;;;;;3.33;1.73;;;;;;;27.95;69.61;96130.22;5034876;28;21206;-87
2023/05/07 10:49:31;;;;;;;2.92;1.30;;;;;;;26.55;75.02;96136.69;5056764;28;20573;-87
2023/05/07 10:52:29;;;;;;;2.72;1.30;;;;;;;27.19;74.19;96135.56;5039023;28;20111;-88
2023/05/07 10:55:31;;;;;;;2.38;1.00;;;;;;;26.40;77.56;96145.50;5066432;28;20044;-84
2023/05/07 10:58:29;;;;;;;3.75;1.80;;;;;;;26.60;75.66;96138.63;5051865;28;20041;-85
2023/05/07 11:01:04;;;;;;;4.03;1.52;;;;;;;26.99;78.53;96141.69;5038296;28;20083;-84
2023/05/07 11:04:14;;;;;;;2.00;1.30;;;;;;;27.47;70.09;96137.78;5049697;28;20037;-85
2023/05/07 11:07:02;;;;;;;2.80;1.23;;;;;;;26.83;74.49;96143.56;5047760;28;20032;-85
2023/05/07 11:09:53;;;;;;;2.33;1.42;;;;;;;26.63;70.91;96138.91;5029877;28;20097;-84
2023/05/07 11:12:43;;;;;;;3.42;1.38;;;;;;;26.30;76.12;96140.84;5054506;28;20112;-84
2023/05/07 11:15:35;;;;;;;2.90;1.50;;;;;;;27.29;74.74;96134.78;5052039;28;20036;-84
2023/05/07 11:18:04;;;;;;;2.08;1.40;;;;;;;26.51;79.63;96141.00;5061149;28;20070;-87
2023/05/07 11:21:04;;;;;;;2.47;1.60;;;;;;;26.61;80.31;96129.44;5032308;28;20029;-85
2023/05/07 11:23:51;;;;;;;2.97;1.58;;;;;;;26.35;82.57;96126.59;5040648;28;20455;-85
2023/05/07 11:26:40;;;;;;;4.30;1.42;;;;;;;26.01;81.36;96128.81;5030748;28;20037;-85
2023/05/07 11:29:21;;;;;;;3.80;1.58;;;;;;;26.03;84.80;96134.78;5029783;28;20120;-85
2023/05/07 11:31:55;;;;;;;2.35;1.23;;;;;;;28.00;71.00;96110.47;5036030;28;20471;-86
2023/05/07 11:34:25;;;;;;;3.53;1.25;;;;;;;25.90;78.49;96116.34;5038592;28;20032;-86
2023/05/07 11:36:53;;;;;;;2.83;1.30;;;;;;;25.88;82.62;96115.78;5045514;28;20033;-86
2023/05/07 11:39:35;;;;;;;3.88;1.35;;;;;;;25.62;81.83;96123.69;5030908;28;20048;-86
2023/05/07 11:42:02;;;;;;;2.13;1.38;;;;;;;25.04;86.18;96117.97;5073887;28;20028;-86
2023/05/07 11:44:43;;;;;;;4.22;1.70;;;;;;;25.07;84.35;96114.78;5032843;28;20040;-85
2023/05/07 11:47:10;;;;;;;2.70;1.45;;;;;;;25.40;82.37;96121.06;5027119;28;20075;-85
2023/05/07 11:49:42;;;;;;;2.90;1.45;;;;;;;25.85;79.09;96117.94;5045537;28;20029;-85
2023/05/07 11:52:09;;;;;;;2.43;1.50;;;;;;;26.68;78.15;96111.13;5038117;28;20080;-85
2023/05/07 11:54:36;;;;;;;2.85;1.35;;;;;;;25.42;83.70;96113.53;5032325;28;20039;-85
2023/05/07 11:57:02;;;;;;;2.75;1.42;;;;;;;26.12;80.67;96118.91;5043127;28;20067;-84